createdAt,value
2022-12-05T00:03:36.182Z,5.60
2022-12-05T00:09:01.192Z,4.47
2022-12-05T00:14:24.826Z,4.63
2022-12-05T00:19:53.701Z,4.65
2022-12-05T00:30:44.230Z,4.82
2022-12-05T00:36:11.853Z,5.22
2022-12-05T00:41:35.772Z,4.53
2022-12-05T00:46:59.442Z,4.22
2022-12-05T00:52:24.490Z,5.50
2022-12-05T00:57:48.113Z,5.80
2022-12-05T01:03:11.847Z,4.65
2022-12-05T01:08:37.394Z,4.93
2022-12-05T01:14:01.095Z,4.65
2022-12-05T01:19:28.366Z,4.53
2022-12-05T01:24:53.433Z,4.82
2022-12-05T01:30:17.571Z,4.50
2022-12-05T01:35:42.559Z,5.57
2022-12-05T01:41:09.555Z,4.10
2022-12-05T01:46:34.931Z,4.85
2022-12-05T01:52:02.889Z,4.85
2022-12-05T01:57:28.130Z,5.72
2022-12-05T02:02:54.260Z,4.82
2022-12-05T02:08:18.115Z,5.13
2022-12-05T02:14:02.202Z,5.15
2022-12-05T02:19:59.800Z,5.38
2022-12-05T02:26:03.006Z,5.28
2022-12-05T02:31:32.122Z,5.72
2022-12-05T02:37:03.128Z,6.07
2022-12-05T02:42:34.009Z,6.07
2022-12-05T02:48:01.129Z,6.50
2022-12-05T02:53:27.355Z,6.22
2022-12-05T02:58:55.301Z,6.15
2022-12-05T03:04:23.817Z,6.43
2022-12-05T03:09:51.897Z,6.28
2022-12-05T03:15:18.544Z,6.30
2022-12-05T03:20:49.354Z,6.93
2022-12-05T03:26:20.675Z,6.32
2022-12-05T03:31:49.804Z,7.43
2022-12-05T03:37:22.835Z,7.22
2022-12-05T03:42:53.290Z,7.00
2022-12-05T03:48:23.208Z,7.25
2022-12-05T03:53:52.609Z,7.30
2022-12-05T03:59:21.267Z,7.28
2022-12-05T04:04:54.013Z,6.90
2022-12-05T04:10:23.582Z,7.90
2022-12-05T04:16:14.533Z,8.02
2022-12-05T04:21:44.556Z,9.00
2022-12-05T04:27:22.337Z,7.55
2022-12-05T04:32:50.677Z,7.90
2022-12-05T04:38:19.620Z,8.30
2022-12-05T04:43:47.537Z,8.70
2022-12-05T04:49:14.697Z,8.82
2022-12-05T04:54:42.297Z,8.30
2022-12-05T05:00:08.869Z,8.73
2022-12-05T05:05:33.995Z,8.52
2022-12-05T05:11:06.154Z,8.85
2022-12-05T05:16:33.922Z,8.77
2022-12-05T05:21:57.674Z,8.55
2022-12-05T05:27:21.315Z,9.60
2022-12-05T05:32:46.524Z,8.65
2022-12-05T05:38:10.188Z,9.00
2022-12-05T05:43:34.050Z,8.20
2022-12-05T05:48:59.583Z,8.55
2022-12-05T05:54:23.239Z,8.98
2022-12-05T05:59:47.376Z,9.70
2022-12-05T06:05:12.372Z,9.30
2022-12-05T06:10:35.962Z,10.48
2022-12-05T06:15:59.737Z,7.93
2022-12-05T06:21:25.068Z,9.38
2022-12-05T06:26:48.680Z,9.40
2022-12-05T06:32:12.339Z,9.35
2022-12-05T06:37:38.900Z,9.48
2022-12-05T06:43:02.513Z,8.75
2022-12-05T06:48:26.342Z,8.88
2022-12-05T06:53:51.457Z,10.10
2022-12-05T06:59:15.155Z,9.25
2022-12-05T07:04:38.805Z,9.80
2022-12-05T07:10:03.987Z,8.80
2022-12-05T07:15:27.642Z,12.13
2022-12-05T07:21:13.653Z,10.48
2022-12-05T07:26:39.261Z,9.50
2022-12-05T07:32:03.849Z,9.30
2022-12-05T07:37:27.628Z,9.25
2022-12-05T07:42:54.374Z,9.73
2022-12-05T07:48:19.198Z,9.07
2022-12-05T07:53:44.165Z,8.75
2022-12-05T07:59:09.232Z,8.63
2022-12-05T08:04:32.953Z,8.00
2022-12-05T08:09:56.848Z,7.78
2022-12-05T08:15:22.207Z,9.73
2022-12-05T08:20:45.817Z,9.52
2022-12-05T08:26:11.979Z,7.97
2022-12-05T08:31:40.838Z,7.80
2022-12-05T08:37:04.594Z,8.00
2022-12-05T08:42:28.747Z,8.15
2022-12-05T08:47:53.734Z,7.85
2022-12-05T08:53:17.401Z,7.80
2022-12-05T08:58:41.714Z,7.60
2022-12-05T09:04:07.214Z,6.85
2022-12-05T09:09:32.687Z,7.85
2022-12-05T09:14:56.934Z,8.20
2022-12-05T09:20:22.196Z,8.07
2022-12-05T09:25:46.036Z,7.80
2022-12-05T09:31:12.552Z,8.40
2022-12-05T09:36:37.762Z,7.60
2022-12-05T09:42:20.206Z,8.90
2022-12-05T09:47:50.666Z,8.43
2022-12-05T09:53:27.273Z,10.10
2022-12-05T09:58:52.537Z,9.00
2022-12-05T10:04:47.501Z,8.93
2022-12-05T10:10:26.305Z,8.60
2022-12-05T10:15:57.145Z,9.80
2022-12-05T10:21:24.213Z,8.75
2022-12-05T10:26:53.017Z,10.35
2022-12-05T10:32:20.862Z,11.05
2022-12-05T10:37:49.071Z,11.15
2022-12-05T10:43:17.341Z,12.20
2022-12-05T10:48:42.368Z,11.52
2022-12-05T10:54:17.969Z,11.07
2022-12-05T10:59:48.829Z,10.18
2022-12-05T11:05:13.944Z,12.85
2022-12-05T11:10:41.036Z,12.00
2022-12-05T11:16:08.050Z,12.73
2022-12-05T11:21:43.514Z,14.00
2022-12-05T11:27:21.938Z,14.25
2022-12-05T11:32:47.014Z,13.70
2022-12-05T11:38:13.515Z,14.07
2022-12-05T11:43:51.797Z,12.85
2022-12-05T11:49:40.073Z,11.70
2022-12-05T11:55:16.102Z,13.00
2022-12-05T12:00:50.173Z,12.23
2022-12-05T12:06:26.518Z,11.02
2022-12-05T12:11:56.068Z,11.45
2022-12-05T12:17:27.384Z,12.18
2022-12-05T12:23:15.242Z,10.68
2022-12-05T12:28:58.494Z,11.05
2022-12-05T12:34:50.957Z,11.32
2022-12-05T12:40:22.523Z,11.40
2022-12-05T12:51:17.474Z,11.45
2022-12-05T12:56:55.292Z,11.85
2022-12-05T13:02:25.038Z,11.50
2022-12-05T13:07:52.717Z,10.77
2022-12-05T13:13:21.822Z,12.23
2022-12-05T13:18:47.318Z,12.95
2022-12-05T13:24:14.902Z,11.73
2022-12-05T13:29:43.374Z,12.30
2022-12-05T13:35:12.177Z,10.70
2022-12-05T13:40:55.881Z,13.38
2022-12-05T13:46:27.623Z,14.30
2022-12-05T13:51:52.094Z,14.85
2022-12-05T13:57:46.905Z,15.05
2022-12-05T14:03:19.668Z,17.75
2022-12-05T14:08:58.404Z,18.13
2022-12-05T14:15:01.768Z,18.08
2022-12-05T14:20:36.450Z,17.55
2022-12-05T14:26:13.629Z,18.48
2022-12-05T14:31:51.493Z,16.95
2022-12-05T14:37:27.229Z,19.77
2022-12-05T14:42:55.893Z,16.52
2022-12-05T14:48:30.046Z,16.58
2022-12-05T14:53:53.898Z,16.52
2022-12-05T14:59:28.022Z,15.48
2022-12-05T15:04:57.937Z,16.80
2022-12-05T15:10:24.968Z,17.50
2022-12-05T15:15:56.512Z,16.45
2022-12-05T15:21:25.142Z,16.80
2022-12-05T15:26:51.011Z,17.08
2022-12-05T15:32:22.858Z,15.43
2022-12-05T15:37:53.931Z,15.43
2022-12-05T15:43:29.393Z,15.73
2022-12-05T15:48:54.147Z,16.08
2022-12-05T15:54:29.208Z,15.65
2022-12-05T15:59:57.751Z,15.98
2022-12-05T16:05:24.383Z,14.77
2022-12-05T16:10:49.517Z,13.65
2022-12-05T16:16:18.316Z,14.23
2022-12-05T16:21:44.482Z,11.35
2022-12-05T16:27:16.340Z,10.63
2022-12-05T16:32:40.920Z,9.25
2022-12-05T16:38:06.988Z,8.55
2022-12-05T16:43:44.853Z,9.55
2022-12-05T16:49:20.358Z,8.85
2022-12-05T16:54:46.870Z,9.05
2022-12-05T17:00:16.103Z,9.55
2022-12-05T17:05:40.110Z,10.00
2022-12-05T17:11:05.886Z,9.68
2022-12-05T17:16:31.043Z,9.10
2022-12-05T17:21:54.948Z,9.00
2022-12-05T17:27:18.618Z,8.80
2022-12-05T17:32:43.941Z,6.93
2022-12-05T17:38:08.274Z,8.27
2022-12-05T17:43:31.984Z,8.05
2022-12-05T17:48:57.064Z,8.63
2022-12-05T17:54:20.801Z,9.27
2022-12-05T17:59:45.069Z,9.70
2022-12-05T18:05:11.310Z,9.48
2022-12-05T18:10:35.139Z,9.05
2022-12-05T18:15:59.430Z,10.38
2022-12-05T18:21:24.588Z,10.68
2022-12-05T18:26:48.329Z,10.45
2022-12-05T18:32:12.395Z,11.25
2022-12-05T18:37:38.601Z,10.55
2022-12-05T18:43:02.345Z,11.02
2022-12-05T18:48:46.941Z,12.10
2022-12-05T18:54:11.702Z,10.63
2022-12-05T18:59:35.853Z,11.88
2022-12-05T19:04:59.875Z,11.77
2022-12-05T19:10:25.295Z,12.38
2022-12-05T19:15:49.038Z,12.25
2022-12-05T19:21:13.238Z,10.57
2022-12-05T19:26:38.635Z,11.23
2022-12-05T19:32:02.473Z,10.43
2022-12-05T19:37:26.366Z,10.40
2022-12-05T19:42:51.421Z,11.80
2022-12-05T19:48:15.207Z,10.38
2022-12-05T19:53:41.229Z,12.30
2022-12-05T19:59:07.623Z,10.95
2022-12-05T20:04:31.323Z,11.48
2022-12-05T20:09:54.981Z,10.40
2022-12-05T20:15:20.091Z,10.20
2022-12-05T20:20:43.893Z,10.77
2022-12-05T20:26:09.906Z,9.27
2022-12-05T20:31:37.163Z,10.65
2022-12-05T20:37:00.870Z,17.73
2022-12-05T20:42:24.738Z,12.00
2022-12-05T20:47:51.321Z,10.27
2022-12-05T20:53:15.038Z,14.75
2022-12-05T20:58:40.378Z,12.77
2022-12-05T21:04:06.896Z,10.55
2022-12-05T21:09:31.896Z,12.02
2022-12-05T21:14:55.604Z,11.52
2022-12-05T21:20:20.769Z,12.18
2022-12-05T21:25:44.476Z,11.95
2022-12-05T21:31:14.586Z,12.27
2022-12-05T21:36:47.390Z,11.60
2022-12-05T21:42:13.718Z,12.88
2022-12-05T21:47:37.955Z,12.18
2022-12-05T21:53:03.096Z,11.95
2022-12-05T21:58:27.688Z,13.30
2022-12-05T22:03:53.552Z,13.70
2022-12-05T22:09:19.582Z,12.45
2022-12-05T22:14:43.397Z,13.32
2022-12-05T22:20:08.077Z,13.00
2022-12-05T22:25:33.095Z,12.02
2022-12-05T22:30:57.791Z,11.82
2022-12-05T22:36:23.122Z,12.65
2022-12-05T22:41:48.228Z,11.55
2022-12-05T22:47:11.957Z,9.85
2022-12-05T22:52:35.632Z,10.90
2022-12-05T22:58:00.720Z,11.88
2022-12-05T23:03:24.727Z,11.75
2022-12-05T23:08:49.185Z,12.43
2022-12-05T23:14:14.120Z,11.57
2022-12-05T23:19:37.638Z,11.63
2022-12-05T23:25:01.225Z,10.20
2022-12-05T23:30:26.126Z,11.13
2022-12-05T23:35:54.650Z,9.50
2022-12-05T23:41:20.563Z,9.52
2022-12-05T23:46:45.489Z,9.80
2022-12-05T23:52:09.842Z,8.82
2022-12-05T23:57:33.429Z,10.02
